EDT,Max TemperatureF,Mean TemperatureF,Min TemperatureF,Max Dew PointF,MeanDew PointF,Min DewpointF,Max Humidity, Mean Humidity, Min Humidity, Max Sea Level PressureIn, Mean Sea Level PressureIn, Min Sea Level PressureIn, Max VisibilityMiles, Mean VisibilityMiles, Min VisibilityMiles, Max Wind SpeedMPH, Mean Wind SpeedMPH, Max Gust SpeedMPH,PrecipitationIn, CloudCover, Events, WindDirDegrees
2013-3-1,35,32,30,30,24,18,80,69,58,30.03,29.97,29.90,10,10,7,13,7,16,0.00,8,Snow,353
2013-3-2,31,30,28,22,21,18,77,69,61,30.04,30.01,29.99,10,9,4,13,9,,0.00,8,Snow,329
2013-3-3,32,29,26,19,16,11,69,57,41,30.06,30.03,30.00,10,10,7,14,8,20,0.00,8,Snow,304
2013-3-4,41,30,20,22,15,10,79,53,28,30.16,30.09,30.03,10,10,10,7,2,,0.00,2,,259
2013-3-5,41,36,32,32,27,23,92,70,48,30.07,29.80,29.53,10,8,1,17,8,23,0.00,8,Rain-Snow,66
2013-3-6,39,36,32,31,30,27,92,81,71,30.21,29.92,29.53,10,8,1,16,10,20,0.00,8,Snow,330
2013-3-7,42,38,33,30,28,26,78,71,59,30.35,30.28,30.19,10,9,5,12,6,17,0.00,7,,296
2013-3-8,46,37,28,27,25,21,82,64,37,30.46,30.40,30.34,10,10,7,9,5,,0.00,1,,352
2013-3-9,59,43,27,32,27,23,83,57,27,30.39,30.25,30.06,10,10,7,10,6,,0.00,1,,100
2013-3-10,71,60,48,33,30,24,48,33,17,30.08,29.98,29.85,10,10,10,17,7,24,0.00,2,,157
2013-3-11,61,52,43,50,41,33,86,64,34,29.87,29.77,29.59,10,10,2,24,10,33,0.00,7,Rain,179
2013-3-12,43,39,35,34,31,28,86,73,61,30.01,29.94,29.82,10,10,5,20,11,23,0.00,8,Rain,241
2013-3-13,36,33,29,31,22,16,89,67,50,30.26,30.10,29.96,10,10,1,24,11,32,0.00,7,Snow,274
2013-3-14,44,34,23,21,17,13,74,53,29,30.31,30.25,30.14,10,10,10,17,9,24,0.00,0,,261
2013-3-15,51,40,29,40,29,20,86,65,48,30.15,29.98,29.84,10,10,4,14,5,16,0.00,2,Rain,218
2013-3-16,59,46,34,48,38,28,89,79,62,30.03,29.77,29.61,10,8,2,20,8,24,0.00,7,Rain,317
2013-3-17,39,36,34,28,26,23,77,66,53,30.16,30.10,30.03,10,10,10,16,8,22,0.00,7,,47
2013-3-18,50,42,33,46,37,25,90,84,65,30.06,29.77,29.61,10,7,2,22,13,31,0.00,8,Rain,127
2013-3-19,42,37,32,34,22,12,76,55,33,30.04,29.91,29.79,10,10,10,32,18,43,0.00,5,,261
2013-3-20,39,32,25,21,15,9,69,49,35,30.03,29.98,29.91,10,10,10,22,13,30,0.00,5,,264
2013-3-21,32,26,21,18,13,7,78,57,42,29.99,29.95,29.92,10,10,3,18,9,23,0.00,7,Snow,284
2013-3-22,44,34,23,18,15,11,72,52,25,30.05,30.01,29.97,10,10,10,15,7,21,0.00,0,,264
2013-3-23,49,37,25,24,19,11,81,53,22,30.07,30.01,29.95,10,10,10,12,2,,0.00,3,,5
2013-3-24,38,35,32,31,25,18,91,70,44,29.93,29.69,29.41,10,8,0,21,13,26,0.00,5,Snow,57
2013-3-25,36,32,29,32,29,27,90,86,78,29.86,29.55,29.39,10,4,1,16,6,21,0.00,8,Snow,282
2013-3-26,43,38,33,32,28,21,87,72,43,30.17,30.03,29.87,10,9,5,20,10,23,0.00,8,Snow,303
2013-3-27,44,39,34,29,25,18,76,58,36,30.26,30.21,30.16,10,10,10,21,11,25,0.00,8,,286
2013-3-28,52,41,30,25,22,20,70,49,29,30.31,30.27,30.24,10,10,10,15,9,24,0.00,1,,294
2013-3-29,55,42,28,30,26,24,86,56,30,30.31,30.26,30.20,10,10,5,13,3,18,0.00,2,,257
2013-3-30,58,43,28,32,23,15,86,50,18,30.25,30.14,29.96,10,9,4,9,1,,0.00,0,,154
2013-3-31,57,50,42,45,38,24,86,70,39,29.96,29.81,29.75,10,9,3,18,5,28,0.00,5,Rain,209